Quincy, IL

10:03 AM CST on December 10, 2016 (GMT -0600)
S 28th Street | | Change Station

Elev 610 ft 39.91 °N, 91.37 °W | Updated 5 seconds ago

Snow
Snow
27.3 °F
Feels Like 24 °F
N
3.1
Wind Variable Wind from SSW
Gusts 7.2 mph

Today
High -- | Low -- °F
--% Chance of Precip.
Yesterday
High -- | Low -- °F
Precip. -- in
Pressure 30.54 in
Visibility 10.0 miles
Clouds Mostly Cloudy 4700 ft
Overcast 9000 ft
Windchill 24 °F
Dew Point 2 °F
Humidity 33%
Rainfall 0.00 in
Snow Depth Not available.
7:16 AM 4:40 PM
Waxing Gibbous, 84% visible
METAR KUIN 101554Z AUTO 16009KT 10SM BKN047 OVC090 M03/M13 A3051 RMK AO2 SLP340 T10331128
Pressure 30.54 in
Visibility 10.0 miles
Clouds Mostly Cloudy 4700 ft
Overcast 9000 ft
Windchill 24 °F
Dew Point 2 °F
Humidity 33%
Rainfall 0.00 in
Snow Depth Not available.
7:16 AM 4:40 PM
Waxing Gibbous, 84% visible
METAR KUIN 101554Z AUTO 16009KT 10SM BKN047 OVC090 M03/M13 A3051 RMK AO2 SLP340 T10331128

10-Day Weather Forecast

Almanac

Astronomy

Dec. 10, 2016 Rise Set
Actual Time
Civil Twilight
Nautical Twilight
Astronomical Twilight
Moon
Length of Visible Light
Length of Day
Tomorrow will be .
, % of the Moon is Illuminated

Today's Extremes

State Highs State Lows

Community

WunderPhotos

Upload Photos

1,956,569 photos uploaded!

WunderBlog® & News

Nearby

Air Quality

  Air Quality AQ Index Pollutant
Not available.

Snow Depth

Station Depth Elevation

Earthquake Activity

City Distance Mag. Time & Date
Minimum magnitude displayed is 2.5.

Coastal Water Temperatures

Place Temperature

Stations

Nearby Weather Stations

Station Location Temp. Windchill Dew Point Humidity Wind Precip. Elev Updated Type
                   

Watches & Warnings

There are currently no watches in effect.